首页
METAR-TAF:

METAR-TAF

机场 :

Teterboro, 新泽西州, 美国

纬度: 40-51-32N, 经度: 074-03-24W, 海拔: 2米

当前天气观测

该预报发布于1小时和6分钟前的04:51 UTC
风速6节,风向西转西南
温度 2°C
湿度 64%
气压 1014 hPa
能見度: 16.1公里
多云层高于9000英尺

METAR: KTEB 190451Z 24006KT 10SM BKN090 02/M04 A2994 RMK AO2 SLP138 T00171039 400721011

时间: 00:57 (05:57 UTC)

预报

该预报发布于32分钟前的05:25 UTC
预报有效从19日的 06点(UTC)到 20日的 12点(UTC)
风速7节,风向西
能見度: 10公里
少量云层高于3500英尺
散云层高于8000英尺
从 19日的 1600点(UTC)
风速11节,风向西,有时为19节阵风
能見度: 10公里
散云层高于4500英尺
短暂存在
从 19日的 18点(UTC)到 19日的 22点(UTC)
多云层高于4500英尺
从 19日的 2300点(UTC)
风速7节,风向西
能見度: 10公里
少量云层高于4000英尺
少量云层高于8000英尺
从 20日的 0900点(UTC)
风速5节,风向西
能見度: 10公里
多云层高于8000英尺

TAF: KTEB 190525Z 1906/2012 27007KT P6SM FEW035 SCT080 FM191600 27011G19KT P6SM SCT045 TEMPO 1918/1922 BKN045 FM192300 26007KT P6SM FEW040 FEW080 FM200900 26005KT P6SM BKN080

超过4000个机场的气象观测和天气预报(METAR&TAF报告)。

可查询的气象台以黄色和红色小点在地图上表示。

将鼠标移到小点上方,可查看气象台名称。

然后点击查看天气观测和预报。

如需切换地图:点击带黑十字的绿色按钮放大地图;点击带横线的绿色按钮缩小地图;或者点击绿色箭头查看邻近地区的地图。


METAR-TAF: